Time,TemperatureF,DewpointF,PressureIn,WindDirection,WindDirectionDegrees,WindSpeedMPH,WindSpeedGustMPH,Humidity,HourlyPrecipIn,Conditions,Clouds,dailyrainin,SoftwareType,DateUTC
2013-01-18 00:02:00,21.4,6.1,30.10,North,353,4.0,4.0,51,0.00,,,0.00,VWS V14.00,2013-01-18 05:02:00,
2013-01-18 00:04:00,21.4,6.1,30.10,North,353,4.0,4.0,51,0.00,,,0.00,VWS V14.00,2013-01-18 05:04:00,
2013-01-18 00:05:00,21.2,5.9,30.10,NNE,24,5.4,5.8,51,0.00,,,0.00,VWS V14.00,2013-01-18 05:05:00,
2013-01-18 00:11:00,21.2,5.9,30.10,NNW,344,4.0,4.9,51,0.00,,,0.00,VWS V14.00,2013-01-18 05:11:00,
2013-01-18 00:16:00,21.2,5.9,30.10,NNW,339,4.9,5.8,51,0.00,,,0.00,VWS V14.00,2013-01-18 05:16:00,
2013-01-18 00:21:00,21.2,5.9,30.10,NW,315,4.9,4.9,51,0.00,,,0.00,VWS V14.00,2013-01-18 05:21:00,
2013-01-18 00:22:00,21.2,5.9,30.10,NNE,26,4.0,4.9,51,0.00,,,0.00,VWS V14.00,2013-01-18 05:22:00,
2013-01-18 00:27:00,21.2,5.9,30.10,North,357,2.2,3.1,51,0.00,,,0.00,VWS V14.00,2013-01-18 05:27:00,
2013-01-18 00:33:00,21.2,6.3,30.10,NNW,336,2.2,3.1,52,0.00,,,0.00,VWS V14.00,2013-01-18 05:33:00,
2013-01-18 00:39:00,21.0,6.2,30.10,North,6,2.7,4.0,52,0.00,,,0.00,VWS V14.00,2013-01-18 05:39:00,
2013-01-18 00:44:00,21.0,6.2,30.13,NNW,344,3.1,3.6,52,0.00,,,0.00,VWS V14.00,2013-01-18 05:44:00,
2013-01-18 00:49:00,21.0,6.2,30.13,NNE,25,5.4,5.8,52,0.00,,,0.00,VWS V14.00,2013-01-18 05:49:00,
2013-01-18 00:55:00,21.0,5.7,30.13,NW,325,2.7,2.7,51,0.00,,,0.00,VWS V14.00,2013-01-18 05:55:00,
2013-01-18 01:00:00,21.0,5.7,30.13,NNE,16,2.7,4.0,51,0.00,,,0.00,VWS V14.00,2013-01-18 06:00:00,
2013-01-18 01:05:00,20.8,5.6,30.13,North,357,3.6,5.8,51,0.00,,,0.00,VWS V14.00,2013-01-18 06:05:00,
2013-01-18 01:10:00,20.8,5.6,30.13,North,350,2.2,4.0,51,0.00,,,0.00,VWS V14.00,2013-01-18 06:10:00,
2013-01-18 01:15:00,20.8,5.6,30.13,North,7,3.1,5.4,51,0.00,,,0.00,VWS V14.00,2013-01-18 06:15:00,
2013-01-18 01:21:00,20.7,5.8,30.13,North,8,2.7,4.0,52,0.00,,,0.00,VWS V14.00,2013-01-18 06:21:00,
2013-01-18 01:26:00,20.7,5.8,30.13,NNW,339,3.6,3.6,52,0.00,,,0.00,VWS V14.00,2013-01-18 06:26:00,
2013-01-18 01:32:00,20.7,5.8,30.13,NNW,344,2.7,3.1,52,0.00,,,0.00,VWS V14.00,2013-01-18 06:32:00,
2013-01-18 01:38:00,20.7,5.8,30.13,North,357,2.7,3.6,52,0.00,,,0.00,VWS V14.00,2013-01-18 06:38:00,
2013-01-18 01:43:00,20.7,5.8,30.13,NW,312,3.1,3.6,52,0.00,,,0.00,VWS V14.00,2013-01-18 06:43:00,
2013-01-18 01:48:00,20.5,5.7,30.13,North,9,3.1,3.1,52,0.00,,,0.00,VWS V14.00,2013-01-18 06:48:00,
2013-01-18 01:54:00,20.5,5.7,30.13,NNE,15,3.1,3.6,52,0.00,,,0.00,VWS V14.00,2013-01-18 06:54:00,
2013-01-18 02:00:00,20.5,5.7,30.13,NNW,346,2.2,2.2,52,0.00,,,0.00,VWS V14.00,2013-01-18 07:00:00,
2013-01-18 02:05:00,20.5,6.1,30.13,NNW,341,2.2,2.2,53,0.00,,,0.00,VWS V14.00,2013-01-18 07:05:00,
2013-01-18 02:11:00,20.5,6.1,30.16,NNW,339,0.0,0.0,53,0.00,,,0.00,VWS V14.00,2013-01-18 07:11:00,
2013-01-18 02:16:00,20.5,5.7,30.16,North,0,0.0,0.0,52,0.00,,,0.00,VWS V14.00,2013-01-18 07:16:00,
2013-01-18 02:21:00,20.5,6.1,30.16,NNW,346,2.2,2.7,53,0.00,,,0.00,VWS V14.00,2013-01-18 07:21:00,
2013-01-18 02:26:00,20.5,6.1,30.16,NNW,341,0.0,3.1,53,0.00,,,0.00,VWS V14.00,2013-01-18 07:26:00,
2013-01-18 02:32:00,20.5,6.1,30.16,NNW,346,0.0,0.0,53,0.00,,,0.00,VWS V14.00,2013-01-18 07:32:00,
2013-01-18 02:38:00,20.5,6.1,30.16,North,353,0.0,0.0,53,0.00,,,0.00,VWS V14.00,2013-01-18 07:38:00,
2013-01-18 02:43:00,20.5,6.1,30.16,North,353,0.0,0.0,53,0.00,,,0.00,VWS V14.00,2013-01-18 07:43:00,
2013-01-18 02:48:00,20.5,6.1,30.16,NNW,346,0.0,0.0,53,0.00,,,0.00,VWS V14.00,2013-01-18 07:48:00,
2013-01-18 02:53:00,20.5,6.1,30.16,North,353,2.2,2.2,53,0.00,,,0.00,VWS V14.00,2013-01-18 07:53:00,
2013-01-18 02:59:00,20.3,5.9,30.16,North,349,0.0,0.0,53,0.00,,,0.00,VWS V14.00,2013-01-18 07:59:00,
2013-01-18 03:04:00,20.3,5.9,30.16,NNW,348,0.0,0.0,53,0.00,,,0.00,VWS V14.00,2013-01-18 08:04:00,
2013-01-18 03:09:00,20.3,5.9,30.16,North,1,2.7,3.1,53,0.00,,,0.00,VWS V14.00,2013-01-18 08:09:00,
2013-01-18 03:14:00,20.3,5.9,30.16,North,357,0.0,0.0,53,0.00,,,0.00,VWS V14.00,2013-01-18 08:14:00,
2013-01-18 03:19:00,20.3,5.9,30.16,North,357,3.1,3.6,53,0.00,,,0.00,VWS V14.00,2013-01-18 08:19:00,
2013-01-18 03:24:00,20.3,5.9,30.16,North,357,0.0,0.0,53,0.00,,,0.00,VWS V14.00,2013-01-18 08:24:00,
2013-01-18 03:29:00,20.1,5.7,30.16,North,357,0.0,0.0,53,0.00,,,0.00,VWS V14.00,2013-01-18 08:29:00,
2013-01-18 03:35:00,20.1,5.7,30.16,North,357,0.0,0.0,53,0.00,,,0.00,VWS V14.00,2013-01-18 08:35:00,
2013-01-18 03:40:00,20.1,5.7,30.16,North,357,2.2,2.2,53,0.00,,,0.00,VWS V14.00,2013-01-18 08:40:00,
2013-01-18 03:46:00,20.1,5.7,30.16,North,357,0.0,2.2,53,0.00,,,0.00,VWS V14.00,2013-01-18 08:46:00,
2013-01-18 03:52:00,19.9,5.6,30.16,North,357,0.0,0.0,53,0.00,,,0.00,VWS V14.00,2013-01-18 08:52:00,
2013-01-18 03:57:00,19.9,5.6,30.16,North,357,0.0,0.0,53,0.00,,,0.00,VWS V14.00,2013-01-18 08:57:00,
2013-01-18 04:03:00,19.9,5.6,30.16,North,357,2.7,4.0,53,0.00,,,0.00,VWS V14.00,2013-01-18 09:03:00,
2013-01-18 04:08:00,19.9,5.6,30.16,North,357,0.0,0.0,53,0.00,,,0.00,VWS V14.00,2013-01-18 09:08:00,
2013-01-18 04:14:00,19.9,6.0,30.16,North,357,0.0,0.0,54,0.00,,,0.00,VWS V14.00,2013-01-18 09:14:00,
2013-01-18 04:20:00,19.9,6.0,30.16,North,357,0.0,2.7,54,0.00,,,0.00,VWS V14.00,2013-01-18 09:20:00,
2013-01-18 04:25:00,19.9,6.0,30.16,North,357,0.0,0.0,54,0.00,,,0.00,VWS V14.00,2013-01-18 09:25:00,
2013-01-18 04:30:00,19.8,5.8,30.16,North,357,0.0,0.0,54,0.00,,,0.00,VWS V14.00,2013-01-18 09:30:00,
2013-01-18 04:35:00,19.8,5.8,30.16,North,357,0.0,0.0,54,0.00,,,0.00,VWS V14.00,2013-01-18 09:35:00,
2013-01-18 04:40:00,19.8,5.8,30.16,North,357,0.0,0.0,54,0.00,,,0.00,VWS V14.00,2013-01-18 09:40:00,
2013-01-18 04:45:00,19.8,5.8,30.16,North,0,0.0,0.0,54,0.00,,,0.00,VWS V14.00,2013-01-18 09:45:00,
2013-01-18 04:51:00,19.8,5.8,30.16,North,0,0.0,0.0,54,0.00,,,0.00,VWS V14.00,2013-01-18 09:51:00,
2013-01-18 04:56:00,19.8,5.8,30.16,North,0,0.0,0.0,54,0.00,,,0.00,VWS V14.00,2013-01-18 09:56:00,
2013-01-18 05:02:00,19.8,5.8,30.16,NNE,24,2.7,2.7,54,0.00,,,0.00,VWS V14.00,2013-01-18 10:02:00,
2013-01-18 05:08:00,19.8,5.8,30.13,NNE,25,0.0,0.0,54,0.00,,,0.00,VWS V14.00,2013-01-18 10:08:00,
2013-01-18 05:13:00,19.8,5.8,30.13,NNE,25,0.0,0.0,54,0.00,,,0.00,VWS V14.00,2013-01-18 10:13:00,
2013-01-18 05:18:00,19.8,5.8,30.13,NNE,25,0.0,0.0,54,0.00,,,0.00,VWS V14.00,2013-01-18 10:18:00,
2013-01-18 05:23:00,19.8,5.8,30.13,NNE,25,0.0,0.0,54,0.00,,,0.00,VWS V14.00,2013-01-18 10:23:00,
2013-01-18 05:28:00,19.8,5.8,30.13,NNE,25,0.0,0.0,54,0.00,,,0.00,VWS V14.00,2013-01-18 10:28:00,
2013-01-18 05:34:00,19.8,5.8,30.13,NNE,25,0.0,0.0,54,0.00,,,0.00,VWS V14.00,2013-01-18 10:34:00,
2013-01-18 05:40:00,19.8,5.8,30.13,NNE,25,0.0,0.0,54,0.00,,,0.00,VWS V14.00,2013-01-18 10:40:00,
2013-01-18 05:45:00,19.8,5.8,30.13,NNE,25,0.0,0.0,54,0.00,,,0.00,VWS V14.00,2013-01-18 10:45:00,
2013-01-18 05:51:00,19.8,5.8,30.13,NNE,25,0.0,0.0,54,0.00,,,0.00,VWS V14.00,2013-01-18 10:51:00,
2013-01-18 05:56:00,19.6,5.7,30.13,NNE,25,0.0,0.0,54,0.00,,,0.00,VWS V14.00,2013-01-18 10:56:00,
2013-01-18 06:01:00,19.6,5.7,30.16,NNE,25,0.0,0.0,54,0.00,,,0.00,VWS V14.00,2013-01-18 11:01:00,
2013-01-18 06:06:00,19.4,5.5,30.16,NNE,25,0.0,0.0,54,0.00,,,0.00,VWS V14.00,2013-01-18 11:06:00,
2013-01-18 06:11:00,19.4,5.9,30.16,NNE,25,0.0,0.0,55,0.00,,,0.00,VWS V14.00,2013-01-18 11:11:00,
2013-01-18 06:16:00,19.4,5.9,30.16,NNE,25,0.0,0.0,55,0.00,,,0.00,VWS V14.00,2013-01-18 11:16:00,
2013-01-18 06:22:00,19.2,5.7,30.16,NNE,25,0.0,0.0,55,0.00,,,0.00,VWS V14.00,2013-01-18 11:22:00,
2013-01-18 06:27:00,19.2,5.7,30.16,NNE,25,0.0,0.0,55,0.00,,,0.00,VWS V14.00,2013-01-18 11:27:00,
2013-01-18 06:33:00,19.2,6.1,30.16,NNE,25,0.0,0.0,56,0.00,,,0.00,VWS V14.00,2013-01-18 11:33:00,
2013-01-18 06:38:00,19.0,5.9,30.16,NNE,25,0.0,0.0,56,0.00,,,0.00,VWS V14.00,2013-01-18 11:38:00,
2013-01-18 06:44:00,19.0,5.9,30.16,NNE,25,0.0,0.0,56,0.00,,,0.00,VWS V14.00,2013-01-18 11:44:00,
2013-01-18 06:50:00,19.0,5.9,30.16,NNE,25,0.0,0.0,56,0.00,,,0.00,VWS V14.00,2013-01-18 11:50:00,
2013-01-18 06:55:00,19.0,6.3,30.13,NNE,25,0.0,0.0,57,0.00,,,0.00,VWS V14.00,2013-01-18 11:55:00,
2013-01-18 07:00:00,18.9,6.2,30.13,NNE,25,0.0,0.0,57,0.00,,,0.00,VWS V14.00,2013-01-18 12:00:00,
2013-01-18 07:05:00,18.9,6.2,30.13,NNE,25,0.0,0.0,57,0.00,,,0.00,VWS V14.00,2013-01-18 12:05:00,
2013-01-18 07:11:00,18.9,6.2,30.13,NNE,25,0.0,0.0,57,0.00,,,0.00,VWS V14.00,2013-01-18 12:11:00,
2013-01-18 07:16:00,18.9,6.2,30.13,NNE,25,0.0,0.0,57,0.00,,,0.00,VWS V14.00,2013-01-18 12:16:00,
2013-01-18 07:22:00,18.7,6.0,30.13,NNE,25,0.0,0.0,57,0.00,,,0.00,VWS V14.00,2013-01-18 12:22:00,
2013-01-18 07:27:00,18.7,6.0,30.13,NNE,25,0.0,0.0,57,0.00,,,0.00,VWS V14.00,2013-01-18 12:27:00,
2013-01-18 07:33:00,18.5,5.8,30.13,NNE,25,0.0,0.0,57,0.00,,,0.00,VWS V14.00,2013-01-18 12:33:00,
2013-01-18 07:38:00,18.3,5.7,30.10,NNE,25,0.0,0.0,57,0.00,,,0.00,VWS V14.00,2013-01-18 12:38:00,
2013-01-18 07:43:00,18.3,6.0,30.10,NNE,25,0.0,0.0,58,0.00,,,0.00,VWS V14.00,2013-01-18 12:43:00,
2013-01-18 07:48:00,18.3,6.0,30.10,NNE,25,0.0,0.0,58,0.00,,,0.00,VWS V14.00,2013-01-18 12:48:00,
2013-01-18 07:54:00,18.3,6.4,30.10,NNE,25,0.0,0.0,59,0.00,,,0.00,VWS V14.00,2013-01-18 12:54:00,
2013-01-18 07:59:00,18.5,6.9,30.13,NNE,25,0.0,0.0,60,0.00,,,0.00,VWS V14.00,2013-01-18 12:59:00,
2013-01-18 08:04:00,18.5,6.9,30.13,NNE,24,0.0,0.0,60,0.00,,,0.00,VWS V14.00,2013-01-18 13:04:00,
2013-01-18 08:10:00,18.9,7.7,30.13,NNW,344,0.0,3.1,61,0.00,,,0.00,VWS V14.00,2013-01-18 13:10:00,
2013-01-18 08:15:00,19.2,8.0,30.13,NNW,341,0.0,0.0,61,0.00,,,0.00,VWS V14.00,2013-01-18 13:15:00,
2013-01-18 08:20:00,19.4,8.5,30.13,North,9,0.0,0.0,62,0.00,,,0.00,VWS V14.00,2013-01-18 13:20:00,
2013-01-18 08:25:00,19.8,8.9,30.13,North,10,0.0,2.7,62,0.00,,,0.00,VWS V14.00,2013-01-18 13:25:00,
2013-01-18 08:31:00,19.9,9.0,30.13,SE,140,0.0,3.1,62,0.00,,,0.00,VWS V14.00,2013-01-18 13:31:00,
2013-01-18 08:36:00,20.1,9.2,30.13,SSE,157,0.0,2.2,62,0.00,,,0.00,VWS V14.00,2013-01-18 13:36:00,
2013-01-18 08:42:00,20.3,9.7,30.13,North,10,2.7,2.7,63,0.00,,,0.00,VWS V14.00,2013-01-18 13:42:00,
2013-01-18 08:47:00,20.5,9.9,30.13,SSW,210,0.0,2.7,63,0.00,,,0.00,VWS V14.00,2013-01-18 13:47:00,
2013-01-18 08:53:00,20.7,10.1,30.13,East,80,0.0,0.0,63,0.00,,,0.00,VWS V14.00,2013-01-18 13:53:00,
2013-01-18 08:58:00,20.8,10.2,30.13,SSW,211,2.2,2.2,63,0.00,,,0.00,VWS V14.00,2013-01-18 13:58:00,
2013-01-18 09:04:00,21.0,10.4,30.13,South,191,0.0,2.2,63,0.00,,,0.00,VWS V14.00,2013-01-18 14:04:00,
2013-01-18 09:10:00,21.4,10.8,30.10,SW,214,2.7,2.7,63,0.00,,,0.00,VWS V14.00,2013-01-18 14:10:00,
2013-01-18 09:15:00,21.6,10.9,30.10,South,184,0.0,0.0,63,0.00,,,0.00,VWS V14.00,2013-01-18 14:15:00,
2013-01-18 09:21:00,21.9,11.3,30.10,SSW,205,4.9,4.9,63,0.00,,,0.00,VWS V14.00,2013-01-18 14:21:00,
2013-01-18 09:26:00,22.1,11.4,30.10,South,191,3.6,3.6,63,0.00,,,0.00,VWS V14.00,2013-01-18 14:26:00,
2013-01-18 09:31:00,22.5,12.1,30.10,SE,135,4.0,4.0,64,0.00,,,0.00,VWS V14.00,2013-01-18 14:31:00,
2013-01-18 09:36:00,22.8,12.5,30.10,South,185,3.1,3.6,64,0.00,,,0.00,VWS V14.00,2013-01-18 14:36:00,
2013-01-18 09:41:00,23.2,12.8,30.10,South,170,3.6,3.6,64,0.00,,,0.00,VWS V14.00,2013-01-18 14:41:00,
2013-01-18 09:47:00,23.4,13.0,30.10,South,189,3.1,3.1,64,0.00,,,0.00,VWS V14.00,2013-01-18 14:47:00,
2013-01-18 09:52:00,23.5,13.2,30.10,South,189,0.0,2.7,64,0.00,,,0.00,VWS V14.00,2013-01-18 14:52:00,
2013-01-18 09:57:00,23.7,13.3,30.10,SSW,202,5.4,5.4,64,0.00,,,0.00,VWS V14.00,2013-01-18 14:57:00,
2013-01-18 10:02:00,24.1,14.0,30.10,SE,143,2.7,3.1,65,0.00,,,0.00,VWS V14.00,2013-01-18 15:02:00,
2013-01-18 10:07:00,24.4,14.4,30.10,South,179,5.8,5.8,65,0.00,,,0.00,VWS V14.00,2013-01-18 15:07:00,
2013-01-18 10:13:00,24.6,14.6,30.10,SSW,200,2.7,4.0,65,0.00,,,0.00,VWS V14.00,2013-01-18 15:13:00,
2013-01-18 10:18:00,24.8,14.7,30.10,South,191,4.0,7.2,65,0.00,,,0.00,VWS V14.00,2013-01-18 15:18:00,
2013-01-18 10:24:00,25.2,15.8,30.10,SSW,201,6.3,6.3,67,0.00,,,0.00,VWS V14.00,2013-01-18 15:24:00,
2013-01-18 10:29:00,25.3,16.3,30.10,SSW,210,8.3,8.3,68,0.00,,,0.00,VWS V14.00,2013-01-18 15:29:00,
2013-01-18 10:35:00,25.3,17.3,30.10,SSW,196,6.3,6.3,71,0.00,,,0.00,VWS V14.00,2013-01-18 15:35:00,
2013-01-18 10:41:00,25.3,17.6,30.10,SSW,201,5.4,5.4,72,0.00,,,0.00,VWS V14.00,2013-01-18 15:41:00,
2013-01-18 10:46:00,25.5,18.4,30.10,SSW,201,4.0,5.4,74,0.00,,,0.00,VWS V14.00,2013-01-18 15:46:00,
2013-01-18 10:52:00,25.7,18.9,30.10,SSW,197,4.0,5.4,75,0.00,,,0.00,VWS V14.00,2013-01-18 15:52:00,
2013-01-18 10:57:00,26.1,19.5,30.10,SSW,206,4.0,4.0,76,0.00,,,0.00,VWS V14.00,2013-01-18 15:57:00,
2013-01-18 11:02:00,26.4,20.2,30.10,South,169,4.0,4.0,77,0.00,,,0.00,VWS V14.00,2013-01-18 16:02:00,
2013-01-18 11:07:00,26.8,20.2,30.10,SSW,201,4.0,4.0,76,0.00,,,0.00,VWS V14.00,2013-01-18 16:07:00,
2013-01-18 11:12:00,27.0,20.4,30.07,SSW,200,0.0,2.7,76,0.00,,,0.00,VWS V14.00,2013-01-18 16:12:00,
2013-01-18 11:17:00,27.5,20.9,30.07,SE,138,2.7,4.0,76,0.00,,,0.00,VWS V14.00,2013-01-18 16:17:00,
2013-01-18 11:22:00,28.0,21.5,30.07,South,182,6.3,8.1,76,0.00,,,0.00,VWS V14.00,2013-01-18 16:22:00,
2013-01-18 11:27:00,28.4,21.2,30.04,SSW,204,5.8,5.8,74,0.00,,,0.00,VWS V14.00,2013-01-18 16:27:00,
2013-01-18 11:33:00,28.9,20.7,30.04,SSW,212,5.8,8.3,71,0.00,,,0.00,VWS V14.00,2013-01-18 16:33:00,
2013-01-18 11:38:00,29.3,20.1,30.04,SSW,199,7.6,10.1,68,0.00,,,0.00,VWS V14.00,2013-01-18 16:38:00,
2013-01-18 11:44:00,29.7,19.0,30.04,SSW,202,11.0,11.0,64,0.00,,,0.00,VWS V14.00,2013-01-18 16:44:00,
2013-01-18 11:49:00,30.0,18.2,30.04,SSW,193,8.3,8.3,61,0.00,,,0.00,VWS V14.00,2013-01-18 16:49:00,
2013-01-18 11:54:00,30.2,18.0,30.04,SSW,200,8.7,13.2,60,0.00,,,0.00,VWS V14.00,2013-01-18 16:54:00,
2013-01-18 12:00:00,30.6,17.1,30.01,SSW,198,10.1,10.1,57,0.00,,,0.00,VWS V14.00,2013-01-18 17:00:00,
2013-01-18 12:05:00,30.6,15.9,30.01,SSW,193,10.5,10.5,54,0.00,,,0.00,VWS V14.00,2013-01-18 17:05:00,
2013-01-18 12:10:00,30.4,14.9,30.01,South,171,10.5,13.2,52,0.00,,,0.00,VWS V14.00,2013-01-18 17:10:00,
2013-01-18 12:15:00,30.4,14.9,30.01,SSW,196,8.3,10.1,52,0.00,,,0.00,VWS V14.00,2013-01-18 17:15:00,
2013-01-18 12:20:00,30.6,15.0,30.01,SSW,199,7.6,10.1,52,0.00,,,0.00,VWS V14.00,2013-01-18 17:20:00,
2013-01-18 12:26:00,30.6,15.0,30.01,SSW,194,6.7,7.6,52,0.00,,,0.00,VWS V14.00,2013-01-18 17:26:00,
2013-01-18 12:31:00,30.7,14.3,30.01,SSW,196,10.1,10.1,50,0.00,,,0.00,VWS V14.00,2013-01-18 17:31:00,
2013-01-18 12:37:00,30.7,13.9,30.01,South,185,8.3,8.3,49,0.00,,,0.00,VWS V14.00,2013-01-18 17:37:00,
2013-01-18 12:42:00,30.9,14.0,29.96,South,190,6.3,8.3,49,0.00,,,0.00,VWS V14.00,2013-01-18 17:42:00,
2013-01-18 12:48:00,31.1,13.2,29.96,South,188,8.1,11.4,47,0.00,,,0.00,VWS V14.00,2013-01-18 17:48:00,
2013-01-18 12:54:00,31.1,13.2,29.96,SSW,197,7.6,14.5,47,0.00,,,0.00,VWS V14.00,2013-01-18 17:54:00,
2013-01-18 12:59:00,31.1,13.2,29.96,SSW,202,13.2,13.2,47,0.00,,,0.00,VWS V14.00,2013-01-18 17:59:00,
2013-01-18 13:04:00,31.3,13.9,29.96,SSW,202,9.2,13.2,48,0.00,,,0.00,VWS V14.00,2013-01-18 18:04:00,
2013-01-18 13:10:00,31.6,14.7,29.96,South,190,10.5,10.5,49,0.00,,,0.00,VWS V14.00,2013-01-18 18:10:00,
2013-01-18 13:16:00,31.8,15.3,29.96,SSW,207,10.1,10.1,50,0.00,,,0.00,VWS V14.00,2013-01-18 18:16:00,
2013-01-18 13:22:00,32.2,15.6,29.96,SSW,203,8.7,8.7,50,0.00,,,0.00,VWS V14.00,2013-01-18 18:22:00,
2013-01-18 13:27:00,32.4,15.8,29.93,SW,217,5.4,8.1,50,0.00,,,0.00,VWS V14.00,2013-01-18 18:27:00,
2013-01-18 13:32:00,32.5,16.0,29.93,SSW,195,10.5,11.9,50,0.00,,,0.00,VWS V14.00,2013-01-18 18:32:00,
2013-01-18 13:38:00,32.7,16.6,29.93,SSW,200,8.1,8.1,51,0.00,,,0.00,VWS V14.00,2013-01-18 18:38:00,
2013-01-18 13:44:00,33.3,17.1,29.93,SSW,204,7.2,7.2,51,0.00,,,0.00,VWS V14.00,2013-01-18 18:44:00,
2013-01-18 13:49:00,33.8,17.1,29.93,South,190,11.0,16.8,50,0.00,,,0.00,VWS V14.00,2013-01-18 18:49:00,
2013-01-18 13:54:00,34.2,17.5,29.90,SSW,208,10.1,10.1,50,0.00,,,0.00,VWS V14.00,2013-01-18 18:54:00,
2013-01-18 13:59:00,34.7,18.0,29.90,SSW,206,12.8,12.8,50,0.00,,,0.00,VWS V14.00,2013-01-18 18:59:00,
2013-01-18 14:05:00,35.1,17.4,29.90,SSW,195,10.1,15.0,48,0.00,,,0.00,VWS V14.00,2013-01-18 19:05:00,
2013-01-18 14:10:00,35.4,17.7,29.90,SSW,204,14.5,14.5,48,0.00,,,0.00,VWS V14.00,2013-01-18 19:10:00,
2013-01-18 14:15:00,35.4,17.7,29.90,SSW,200,13.6,13.6,48,0.00,,,0.00,VWS V14.00,2013-01-18 19:15:00,
2013-01-18 14:21:00,35.4,16.7,29.90,South,183,11.9,11.9,46,0.00,,,0.00,VWS V14.00,2013-01-18 19:21:00,
2013-01-18 14:26:00,34.9,16.7,29.87,SSW,204,10.5,10.5,47,0.00,,,0.00,VWS V14.00,2013-01-18 19:26:00,
2013-01-18 14:32:00,34.7,17.0,29.87,SW,217,8.7,11.9,48,0.00,,,0.00,VWS V14.00,2013-01-18 19:32:00,
2013-01-18 14:37:00,34.9,17.7,29.87,South,170,12.3,12.3,49,0.00,,,0.00,VWS V14.00,2013-01-18 19:37:00,
2013-01-18 14:42:00,35.1,17.8,29.87,South,189,8.1,11.0,49,0.00,,,0.00,VWS V14.00,2013-01-18 19:42:00,
2013-01-18 14:47:00,35.1,17.8,29.87,SSW,197,10.5,13.6,49,0.00,,,0.00,VWS V14.00,2013-01-18 19:47:00,
2013-01-18 14:52:00,35.2,18.0,29.87,South,186,8.3,8.3,49,0.00,,,0.00,VWS V14.00,2013-01-18 19:52:00,
2013-01-18 14:58:00,35.4,18.2,29.87,SSW,202,13.2,13.2,49,0.00,,,0.00,VWS V14.00,2013-01-18 19:58:00,
2013-01-18 15:04:00,35.4,18.6,29.84,SSW,198,8.3,15.4,50,0.00,,,0.00,VWS V14.00,2013-01-18 20:04:00,
2013-01-18 15:09:00,35.4,18.6,29.84,SSW,208,10.1,12.8,50,0.00,,,0.00,VWS V14.00,2013-01-18 20:09:00,
2013-01-18 15:14:00,35.6,18.8,29.84,SSW,207,15.4,15.4,50,0.00,,,0.00,VWS V14.00,2013-01-18 20:14:00,
2013-01-18 15:19:00,35.8,19.0,29.84,SSW,213,8.3,8.7,50,0.00,,,0.00,VWS V14.00,2013-01-18 20:19:00,
2013-01-18 15:24:00,36.1,19.3,29.84,SSW,203,8.7,12.8,50,0.00,,,0.00,VWS V14.00,2013-01-18 20:24:00,
2013-01-18 15:29:00,36.3,19.5,29.84,SSW,196,12.8,12.8,50,0.00,,,0.00,VWS V14.00,2013-01-18 20:29:00,
2013-01-18 15:34:00,36.7,19.8,29.81,SSW,195,8.7,12.3,50,0.00,,,0.00,VWS V14.00,2013-01-18 20:34:00,
2013-01-18 15:40:00,37.2,20.3,29.81,SSW,206,12.3,12.3,50,0.00,,,0.00,VWS V14.00,2013-01-18 20:40:00,
2013-01-18 15:45:00,37.6,20.2,29.81,South,189,10.1,10.1,49,0.00,,,0.00,VWS V14.00,2013-01-18 20:45:00,
2013-01-18 15:51:00,37.6,20.2,29.81,South,188,11.0,11.0,49,0.00,,,0.00,VWS V14.00,2013-01-18 20:51:00,
2013-01-18 15:56:00,37.8,20.8,29.81,South,180,10.1,10.1,50,0.00,,,0.00,VWS V14.00,2013-01-18 20:56:00,
2013-01-18 16:02:00,37.9,21.0,29.78,SW,216,13.2,13.2,50,0.00,,,0.00,VWS V14.00,2013-01-18 21:02:00,
2013-01-18 16:08:00,37.8,20.8,29.78,SSW,211,11.0,11.0,50,0.00,,,0.00,VWS V14.00,2013-01-18 21:08:00,
2013-01-18 16:14:00,37.6,20.6,29.78,SW,214,8.7,12.8,50,0.00,,,0.00,VWS V14.00,2013-01-18 21:14:00,
2013-01-18 16:19:00,37.4,20.9,29.78,SSW,198,8.1,11.0,51,0.00,,,0.00,VWS V14.00,2013-01-18 21:19:00,
2013-01-18 16:24:00,37.4,20.9,29.78,SW,223,13.6,13.6,51,0.00,,,0.00,VWS V14.00,2013-01-18 21:24:00,
2013-01-18 16:29:00,37.4,20.9,29.78,South,190,8.1,8.3,51,0.00,,,0.00,VWS V14.00,2013-01-18 21:29:00,
2013-01-18 16:35:00,37.4,20.9,29.78,SSW,196,10.5,13.2,51,0.00,,,0.00,VWS V14.00,2013-01-18 21:35:00,
2013-01-18 16:40:00,37.2,21.2,29.78,SSW,206,5.8,12.3,52,0.00,,,0.00,VWS V14.00,2013-01-18 21:40:00,
2013-01-18 16:46:00,37.2,21.2,29.78,SSW,207,8.1,10.1,52,0.00,,,0.00,VWS V14.00,2013-01-18 21:46:00,
2013-01-18 16:51:00,37.4,21.4,29.78,SSW,207,8.1,8.1,52,0.00,,,0.00,VWS V14.00,2013-01-18 21:51:00,
2013-01-18 16:56:00,37.4,21.4,29.75,SSW,203,8.7,8.7,52,0.00,,,0.00,VWS V14.00,2013-01-18 21:56:00,
2013-01-18 17:01:00,37.4,21.4,29.75,SW,225,11.0,11.0,52,0.00,,,0.00,VWS V14.00,2013-01-18 22:01:00,
2013-01-18 17:07:00,37.2,21.7,29.75,SSW,194,8.1,8.1,53,0.00,,,0.00,VWS V14.00,2013-01-18 22:07:00,
2013-01-18 17:12:00,37.2,21.7,29.75,SSW,195,9.6,11.0,53,0.00,,,0.00,VWS V14.00,2013-01-18 22:12:00,
2013-01-18 17:18:00,37.2,21.7,29.75,SSW,204,11.0,12.8,53,0.00,,,0.00,VWS V14.00,2013-01-18 22:18:00,
2013-01-18 17:24:00,37.2,21.7,29.75,SSW,205,9.2,9.2,53,0.00,,,0.00,VWS V14.00,2013-01-18 22:24:00,
2013-01-18 17:29:00,37.0,21.5,29.75,South,189,5.8,9.6,53,0.00,,,0.00,VWS V14.00,2013-01-18 22:29:00,
2013-01-18 17:34:00,37.0,21.5,29.75,SSW,198,10.5,10.5,53,0.00,,,0.00,VWS V14.00,2013-01-18 22:34:00,
2013-01-18 17:40:00,36.9,21.8,29.75,SSE,168,6.3,6.3,54,0.00,,,0.00,VWS V14.00,2013-01-18 22:40:00,
2013-01-18 17:45:00,36.9,21.8,29.75,South,191,3.6,5.8,54,0.00,,,0.00,VWS V14.00,2013-01-18 22:45:00,
2013-01-18 17:50:00,36.7,21.6,29.75,South,186,2.7,5.4,54,0.00,,,0.00,VWS V14.00,2013-01-18 22:50:00,
2013-01-18 17:56:00,36.7,21.6,29.75,South,186,3.6,3.6,54,0.00,,,0.00,VWS V14.00,2013-01-18 22:56:00,
2013-01-18 18:01:00,36.5,21.9,29.72,SSE,166,5.8,5.8,55,0.00,,,0.00,VWS V14.00,2013-01-18 23:01:00,
2013-01-18 18:06:00,36.5,21.9,29.72,South,181,4.0,4.0,55,0.00,,,0.00,VWS V14.00,2013-01-18 23:06:00,
2013-01-18 18:11:00,36.5,21.9,29.72,SSW,205,3.6,4.9,55,0.00,,,0.00,VWS V14.00,2013-01-18 23:11:00,
2013-01-18 18:17:00,36.5,22.3,29.75,SSW,198,4.0,6.3,56,0.00,,,0.00,VWS V14.00,2013-01-18 23:17:00,
2013-01-18 18:22:00,36.5,22.3,29.75,SSW,205,6.3,6.3,56,0.00,,,0.00,VWS V14.00,2013-01-18 23:22:00,
2013-01-18 18:27:00,36.7,22.5,29.75,South,189,6.3,6.3,56,0.00,,,0.00,VWS V14.00,2013-01-18 23:27:00,
2013-01-18 18:32:00,36.7,22.5,29.75,SSW,204,3.1,5.4,56,0.00,,,0.00,VWS V14.00,2013-01-18 23:32:00,
2013-01-18 18:38:00,36.9,22.6,29.75,SSW,209,8.7,8.7,56,0.00,,,0.00,VWS V14.00,2013-01-18 23:38:00,
2013-01-18 18:43:00,37.2,23.0,29.75,SSW,211,4.9,8.1,56,0.00,,,0.00,VWS V14.00,2013-01-18 23:43:00,
2013-01-18 18:49:00,37.4,22.7,29.75,SSW,194,5.4,5.4,55,0.00,,,0.00,VWS V14.00,2013-01-18 23:49:00,
2013-01-18 18:54:00,37.8,22.6,29.75,SSW,209,8.7,8.7,54,0.00,,,0.00,VWS V14.00,2013-01-18 23:54:00,
2013-01-18 19:00:00,37.9,22.4,29.75,SSW,203,7.6,8.7,53,0.00,,,0.00,VWS V14.00,2013-01-19 00:00:00,
2013-01-18 19:05:00,38.3,22.2,29.75,SW,216,6.3,9.6,52,0.00,,,0.00,VWS V14.00,2013-01-19 00:05:00,
2013-01-18 19:10:00,38.3,22.2,29.75,SW,216,8.3,8.3,52,0.00,,,0.00,VWS V14.00,2013-01-19 00:10:00,
2013-01-18 19:15:00,38.5,22.4,29.75,South,186,9.6,9.6,52,0.00,,,0.00,VWS V14.00,2013-01-19 00:15:00,
2013-01-18 19:21:00,38.5,21.9,29.75,SW,215,8.3,12.3,51,0.00,,,0.00,VWS V14.00,2013-01-19 00:21:00,
2013-01-18 19:27:00,38.5,21.5,29.75,South,179,12.8,12.8,50,0.00,,,0.00,VWS V14.00,2013-01-19 00:27:00,
2013-01-18 19:32:00,38.5,21.5,29.75,SSW,203,8.7,8.7,50,0.00,,,0.00,VWS V14.00,2013-01-19 00:32:00,
2013-01-18 19:37:00,38.5,21.5,29.75,SSW,208,8.3,8.3,50,0.00,,,0.00,VWS V14.00,2013-01-19 00:37:00,
2013-01-18 19:42:00,38.5,21.5,29.75,SSW,204,7.6,7.6,50,0.00,,,0.00,VWS V14.00,2013-01-19 00:42:00,
2013-01-18 19:47:00,38.3,21.3,29.75,SSW,212,8.3,9.6,50,0.00,,,0.00,VWS V14.00,2013-01-19 00:47:00,
2013-01-18 19:53:00,38.3,21.3,29.75,SSW,205,8.3,8.3,50,0.00,,,0.00,VWS V14.00,2013-01-19 00:53:00,
2013-01-18 19:58:00,38.3,21.3,29.75,SSW,199,9.2,9.2,50,0.00,,,0.00,VWS V14.00,2013-01-19 00:58:00,
2013-01-18 20:03:00,38.3,21.3,29.75,SW,225,5.4,8.7,50,0.00,,,0.00,VWS V14.00,2013-01-19 01:03:00,
2013-01-18 20:09:00,38.3,20.8,29.75,SSW,203,10.1,10.1,49,0.00,,,0.00,VWS V14.00,2013-01-19 01:09:00,
2013-01-18 20:14:00,38.5,21.0,29.75,SSW,208,12.3,12.3,49,0.00,,,0.00,VWS V14.00,2013-01-19 01:14:00,
2013-01-18 20:20:00,38.5,21.0,29.75,SSW,204,11.0,13.2,49,0.00,,,0.00,VWS V14.00,2013-01-19 01:20:00,
2013-01-18 20:25:00,38.5,21.0,29.72,SSW,207,13.2,17.0,49,0.00,,,0.00,VWS V14.00,2013-01-19 01:25:00,
2013-01-18 20:30:00,38.5,21.0,29.72,SW,221,10.5,10.5,49,0.00,,,0.00,VWS V14.00,2013-01-19 01:30:00,
2013-01-18 20:35:00,38.5,21.5,29.72,SW,226,8.3,19.7,50,0.00,,,0.00,VWS V14.00,2013-01-19 01:35:00,
2013-01-18 20:40:00,38.5,21.5,29.72,SW,215,8.3,13.2,50,0.00,,,0.00,VWS V14.00,2013-01-19 01:40:00,
2013-01-18 20:45:00,38.5,21.5,29.72,SSW,211,12.8,12.8,50,0.00,,,0.00,VWS V14.00,2013-01-19 01:45:00,
2013-01-18 20:51:00,38.5,21.9,29.72,SSW,209,12.3,12.3,51,0.00,,,0.00,VWS V14.00,2013-01-19 01:51:00,
2013-01-18 20:56:00,38.5,21.9,29.72,SW,229,10.5,10.5,51,0.00,,,0.00,VWS V14.00,2013-01-19 01:56:00,
2013-01-18 21:01:00,38.7,22.1,29.72,SW,214,13.6,16.8,51,0.00,,,0.00,VWS V14.00,2013-01-19 02:01:00,
2013-01-18 21:07:00,38.7,22.6,29.72,SW,216,7.6,12.3,52,0.00,,,0.00,VWS V14.00,2013-01-19 02:07:00,
2013-01-18 21:13:00,38.5,22.4,29.72,South,189,13.6,13.6,52,0.00,,,0.00,VWS V14.00,2013-01-19 02:13:00,
2013-01-18 21:18:00,38.5,22.4,29.72,SW,220,10.5,10.5,52,0.00,,,0.00,VWS V14.00,2013-01-19 02:18:00,
2013-01-18 21:23:00,38.5,22.9,29.72,SSW,213,8.3,8.7,53,0.00,,,0.00,VWS V14.00,2013-01-19 02:23:00,
2013-01-18 21:29:00,38.5,22.9,29.72,South,190,7.6,10.5,53,0.00,,,0.00,VWS V14.00,2013-01-19 02:29:00,
2013-01-18 21:34:00,38.3,23.1,29.72,SSW,200,8.7,12.8,54,0.00,,,0.00,VWS V14.00,2013-01-19 02:34:00,
2013-01-18 21:39:00,38.3,23.6,29.72,SW,232,11.0,11.0,55,0.00,,,0.00,VWS V14.00,2013-01-19 02:39:00,
2013-01-18 21:44:00,38.3,23.6,29.72,SSW,199,11.0,11.0,55,0.00,,,0.00,VWS V14.00,2013-01-19 02:44:00,
2013-01-18 21:50:00,38.5,24.2,29.72,SSW,197,8.1,8.1,56,0.00,,,0.00,VWS V14.00,2013-01-19 02:50:00,
2013-01-18 21:55:00,38.5,24.2,29.72,SSW,209,5.8,5.8,56,0.00,,,0.00,VWS V14.00,2013-01-19 02:55:00,
2013-01-18 22:00:00,38.5,24.6,29.69,SW,217,10.1,10.5,57,0.00,,,0.00,VWS V14.00,2013-01-19 03:00:00,
2013-01-18 22:05:00,38.7,24.8,29.69,SSW,207,10.1,10.1,57,0.00,,,0.00,VWS V14.00,2013-01-19 03:05:00,
2013-01-18 22:11:00,38.8,24.9,29.69,SW,219,13.2,18.3,57,0.00,,,0.00,VWS V14.00,2013-01-19 03:11:00,
2013-01-18 22:16:00,39.0,25.1,29.69,SW,215,13.2,19.7,57,0.00,,,0.00,VWS V14.00,2013-01-19 03:16:00,
2013-01-18 22:22:00,39.4,25.0,29.69,SSW,209,13.2,13.2,56,0.00,,,0.00,VWS V14.00,2013-01-19 03:22:00,
2013-01-18 22:27:00,39.4,25.0,29.69,SW,226,8.7,11.0,56,0.00,,,0.00,VWS V14.00,2013-01-19 03:27:00,
2013-01-18 22:32:00,39.4,25.0,29.69,SSW,209,15.0,15.0,56,0.00,,,0.00,VWS V14.00,2013-01-19 03:32:00,
2013-01-18 22:37:00,39.4,25.4,29.69,SW,235,14.1,15.0,57,0.00,,,0.00,VWS V14.00,2013-01-19 03:37:00,
2013-01-18 22:44:00,39.6,25.6,29.69,WSW,241,13.2,15.4,57,0.00,,,0.00,VWS V14.00,2013-01-19 03:44:00,
2013-01-18 22:49:00,39.6,25.6,29.69,SW,233,10.5,10.5,57,0.00,,,0.00,VWS V14.00,2013-01-19 03:49:00,
2013-01-18 22:55:00,39.7,25.8,29.69,SSW,195,11.0,13.2,57,0.00,,,0.00,VWS V14.00,2013-01-19 03:55:00,
2013-01-18 23:00:00,39.7,25.8,29.69,SSW,206,17.0,17.0,57,0.00,,,0.00,VWS V14.00,2013-01-19 04:00:00,
2013-01-18 23:06:00,39.7,25.8,29.69,WSW,243,11.4,15.0,57,0.00,,,0.00,VWS V14.00,2013-01-19 04:06:00,
2013-01-18 23:12:00,39.7,25.8,29.66,West,264,10.1,13.2,57,0.00,,,0.00,VWS V14.00,2013-01-19 04:12:00,
2013-01-18 23:17:00,39.9,25.9,29.66,SSW,208,10.5,10.5,57,0.00,,,0.00,VWS V14.00,2013-01-19 04:17:00,
2013-01-18 23:23:00,39.9,25.9,29.66,SSW,203,11.9,11.9,57,0.00,,,0.00,VWS V14.00,2013-01-19 04:23:00,
2013-01-18 23:29:00,39.9,25.9,29.66,SSW,207,6.3,12.8,57,0.00,,,0.00,VWS V14.00,2013-01-19 04:29:00,
2013-01-18 23:34:00,39.9,25.9,29.66,SSW,206,7.6,15.0,57,0.00,,,0.00,VWS V14.00,2013-01-19 04:34:00,
2013-01-18 23:40:00,39.9,25.9,29.66,SW,234,10.5,12.3,57,0.00,,,0.00,VWS V14.00,2013-01-19 04:40:00,
2013-01-18 23:46:00,40.1,26.1,29.66,SW,223,8.7,8.7,57,0.00,,,0.00,VWS V14.00,2013-01-19 04:46:00,
2013-01-18 23:52:00,40.3,26.3,29.66,WSW,241,12.8,12.8,57,0.00,,,0.00,VWS V14.00,2013-01-19 04:52:00,
2013-01-18 23:57:00,40.5,26.4,29.66,SSW,210,10.1,12.8,57,0.00,,,0.00,VWS V14.00,2013-01-19 04:57:00,